createdAt,value
2022-09-14T05:40:27.338Z,95603.97
2022-09-14T05:42:58.483Z,95602.22
2022-09-14T05:48:46.760Z,95626.19
2022-09-14T05:51:15.793Z,95624.31
2022-09-14T05:56:33.617Z,95619.97
2022-09-14T05:59:01.082Z,95629.78
2022-09-14T06:01:30.718Z,95629.50
2022-09-14T06:03:59.203Z,95623.56
2022-09-14T06:06:26.960Z,95619.06
2022-09-14T06:08:53.998Z,95614.31
2022-09-14T06:11:21.494Z,95613.03
2022-09-14T06:13:49.116Z,95603.09
2022-09-14T06:16:16.910Z,95609.75
2022-09-14T06:18:45.728Z,95613.88
2022-09-14T06:21:12.384Z,95613.78
2022-09-14T06:26:33.339Z,95610.34
2022-09-14T06:29:00.152Z,95609.19
2022-09-14T06:31:27.813Z,95613.22
2022-09-14T06:33:54.369Z,95605.53
2022-09-14T06:36:20.859Z,95611.47
2022-09-14T06:38:47.487Z,95607.38
2022-09-14T06:41:14.420Z,95621.47
2022-09-14T06:43:41.086Z,95626.22
2022-09-14T06:46:08.572Z,95633.28
2022-09-14T06:48:35.341Z,95634.19
2022-09-14T06:51:02.118Z,95641.31
2022-09-14T06:53:31.483Z,95651.81
2022-09-14T06:55:58.068Z,95670.66
2022-09-14T06:58:24.884Z,95684.34
2022-09-14T07:00:51.746Z,95700.25
2022-09-14T07:03:21.106Z,95714.13
2022-09-14T07:05:47.610Z,95728.28
2022-09-14T07:08:14.600Z,95736.88
2022-09-14T07:10:43.372Z,95747.81
2022-09-14T07:13:10.898Z,95728.09
2022-09-14T07:15:40.488Z,95734.38
2022-09-14T07:18:08.046Z,95738.69
2022-09-14T07:20:35.296Z,95738.66
2022-09-14T07:23:02.341Z,95727.72
2022-09-14T07:25:31.497Z,95729.25
2022-09-14T07:28:07.051Z,95742.75
2022-09-14T07:30:39.879Z,95741.47
2022-09-14T07:33:08.919Z,95740.44
2022-09-14T07:35:39.086Z,95736.91
2022-09-14T07:38:07.874Z,95735.94
2022-09-14T07:40:38.397Z,95738.59
2022-09-14T07:43:05.050Z,95735.19
2022-09-14T07:45:34.623Z,95739.44
2022-09-14T07:48:01.219Z,95739.06
2022-09-14T07:50:29.581Z,95735.66
2022-09-14T07:52:57.209Z,95734.91
2022-09-14T07:55:24.046Z,95724.22
2022-09-14T08:00:48.641Z,95707.38
2022-09-14T08:03:17.873Z,95720.59
2022-09-14T08:05:44.839Z,95717.84
2022-09-14T08:08:12.193Z,95716.03
2022-09-14T08:10:39.705Z,95713.31
2022-09-14T08:16:00.603Z,95705.50
2022-09-14T08:18:27.697Z,95694.34
2022-09-14T08:20:54.652Z,95701.16
2022-09-14T08:23:22.080Z,95698.09
2022-09-14T08:25:50.127Z,95701.19
2022-09-14T08:28:18.718Z,95702.94
2022-09-14T08:30:45.529Z,95696.56
2022-09-14T08:33:17.511Z,95693.84
2022-09-14T08:36:03.412Z,95687.91
2022-09-14T08:38:33.398Z,95693.47
2022-09-14T08:41:00.805Z,95684.00
2022-09-14T08:43:28.176Z,95690.16
2022-09-14T08:45:56.757Z,95694.78
2022-09-14T08:48:23.582Z,95698.91
2022-09-14T08:50:51.467Z,95698.53
2022-09-14T08:53:18.643Z,95697.13
2022-09-14T08:55:45.566Z,95690.47
2022-09-14T08:58:12.429Z,95676.09
2022-09-14T09:00:43.810Z,95661.81
2022-09-14T09:03:10.652Z,95667.47
2022-09-14T09:05:38.121Z,95665.00
2022-09-14T09:08:06.955Z,95676.72
2022-09-14T09:13:43.174Z,95667.06
2022-09-14T09:18:50.584Z,95651.28
2022-09-14T09:24:38.964Z,95641.25
2022-09-14T09:27:06.624Z,95646.91
2022-09-14T09:29:36.086Z,95648.41
2022-09-14T09:32:04.067Z,95641.59
2022-09-14T09:34:31.991Z,95630.47
2022-09-14T09:36:59.545Z,95627.16
2022-09-14T09:39:27.312Z,95630.44
2022-09-14T09:41:54.085Z,95616.31
2022-09-14T09:44:20.987Z,95618.41
2022-09-14T09:46:55.834Z,95615.91
2022-09-14T09:49:24.605Z,95607.19
2022-09-14T09:51:52.099Z,95608.81
2022-09-14T09:54:18.885Z,95595.19
2022-09-14T09:56:46.555Z,95591.28
2022-09-14T09:59:15.568Z,95594.19
2022-09-14T10:01:44.364Z,95586.19
2022-09-14T10:04:11.590Z,95581.75
2022-09-14T10:06:42.130Z,95572.22
2022-09-14T10:09:09.493Z,95571.31
2022-09-14T10:11:38.167Z,95572.78
2022-09-14T10:16:47.517Z,95568.56
2022-09-14T10:19:14.345Z,95568.19
2022-09-14T10:21:42.084Z,95556.44
2022-09-14T10:24:10.682Z,95559.34
2022-09-14T10:26:37.673Z,95532.69
2022-09-14T10:29:04.579Z,95533.56
2022-09-14T10:31:45.357Z,95533.72
2022-09-14T10:34:16.777Z,95533.50
2022-09-14T10:36:48.109Z,95534.31
2022-09-14T10:39:15.130Z,95523.28
2022-09-14T10:41:42.036Z,95534.59
2022-09-14T10:46:51.277Z,95534.66
2022-09-14T10:49:17.945Z,95546.75
2022-09-14T10:51:46.325Z,95538.72
2022-09-14T10:54:14.243Z,95547.13
2022-09-14T10:56:41.863Z,95541.66
2022-09-14T10:59:12.998Z,95553.03
2022-09-14T11:01:40.424Z,95553.38
2022-09-14T11:04:09.539Z,95547.44
2022-09-14T11:06:40.260Z,95543.59
2022-09-14T11:12:25.894Z,95521.41
2022-09-14T11:14:57.329Z,95527.28
2022-09-14T11:17:26.342Z,95521.09
2022-09-14T11:19:57.970Z,95529.66
2022-09-14T11:22:27.737Z,95524.22
2022-09-14T11:24:54.540Z,95531.44
2022-09-14T11:27:21.270Z,95521.75
2022-09-14T11:29:49.728Z,95524.72
2022-09-14T11:32:21.304Z,95523.84
2022-09-14T11:34:48.864Z,95517.66
2022-09-14T11:37:17.421Z,95515.59
2022-09-14T11:39:44.954Z,95523.38
2022-09-14T11:42:11.628Z,95521.84
2022-09-14T11:44:40.625Z,95521.69
2022-09-14T11:47:08.475Z,95527.69
2022-09-14T11:49:37.608Z,95519.03
2022-09-14T11:52:04.292Z,95516.94
2022-09-14T11:54:32.353Z,95523.69
2022-09-14T11:57:02.814Z,95521.03
2022-09-14T11:59:32.710Z,95523.44
2022-09-14T12:01:59.283Z,95531.88
2022-09-14T12:04:26.260Z,95529.84
2022-09-14T12:06:55.324Z,95535.44
2022-09-14T12:09:22.714Z,95533.84
2022-09-14T12:11:49.492Z,95532.34
2022-09-14T12:14:16.706Z,95537.38
2022-09-14T12:19:25.519Z,95522.84
2022-09-14T12:21:53.244Z,95529.59
2022-09-14T12:24:21.965Z,95526.94
2022-09-14T12:26:51.161Z,95536.44
2022-09-14T12:29:18.843Z,95539.66
2022-09-14T12:31:54.755Z,95533.38
2022-09-14T12:34:27.551Z,95526.66
2022-09-14T12:36:56.716Z,95534.88
2022-09-14T12:39:26.624Z,95530.00
2022-09-14T12:44:35.200Z,95536.00
2022-09-14T12:47:03.708Z,95522.69
2022-09-14T12:49:30.691Z,95529.91
2022-09-14T12:51:58.518Z,95526.59
2022-09-14T12:54:38.473Z,95525.06
2022-09-14T12:57:06.109Z,95529.25
2022-09-14T12:59:33.153Z,95525.84
2022-09-14T13:01:59.996Z,95516.91
2022-09-14T13:04:33.268Z,95504.81
2022-09-14T13:07:01.694Z,95505.47
2022-09-14T13:09:30.789Z,95503.50
2022-09-14T13:11:58.377Z,95504.66
2022-09-14T13:14:25.945Z,95503.53
2022-09-14T13:16:52.961Z,95496.50
2022-09-14T13:22:00.260Z,95485.63
2022-09-14T13:24:36.783Z,95482.00
2022-09-14T13:27:04.756Z,95479.50
2022-09-14T13:29:34.822Z,95473.72
2022-09-14T13:32:04.172Z,95465.22
2022-09-14T13:34:34.949Z,95456.59
2022-09-14T13:37:02.253Z,95457.31
2022-09-14T13:39:29.041Z,95453.50
2022-09-14T13:41:56.791Z,95451.34
2022-09-14T13:44:26.492Z,95445.03
2022-09-14T13:46:53.838Z,95434.22
2022-09-14T13:49:23.159Z,95438.94
2022-09-14T13:51:49.997Z,95431.31
2022-09-14T13:54:17.356Z,95431.53
2022-09-14T13:56:45.100Z,95430.25
2022-09-14T13:59:14.628Z,95416.41
2022-09-14T14:04:24.721Z,95422.84
2022-09-14T14:06:51.722Z,95426.25
2022-09-14T14:09:20.622Z,95435.97
2022-09-14T14:11:48.274Z,95435.13
2022-09-14T14:14:15.452Z,95426.69
2022-09-14T14:16:43.625Z,95434.03
2022-09-14T14:28:38.484Z,95411.63
2022-09-14T14:31:08.718Z,95417.44
2022-09-14T14:33:44.709Z,95409.16
2022-09-14T14:42:34.454Z,95388.16
2022-09-14T14:45:09.732Z,95384.97
2022-09-14T14:47:38.668Z,95380.09
2022-09-14T14:50:05.834Z,95387.06
2022-09-14T14:52:32.945Z,95388.03
2022-09-14T14:55:06.928Z,95374.53
2022-09-14T14:57:34.265Z,95373.84
2022-09-14T15:00:07.731Z,95374.19
2022-09-14T15:02:38.526Z,95378.66
2022-09-14T15:05:05.986Z,95379.38
2022-09-14T15:07:37.751Z,95371.09
2022-09-14T15:10:07.698Z,95367.53
2022-09-14T15:12:38.077Z,95367.72
2022-09-14T15:15:10.232Z,95361.41
2022-09-14T15:17:41.992Z,95361.25
2022-09-14T15:20:14.581Z,95359.41
2022-09-14T15:25:24.287Z,95347.13
2022-09-14T15:27:51.448Z,95345.00
2022-09-14T15:30:18.109Z,95335.84
2022-09-14T15:32:44.970Z,95319.88
2022-09-14T15:35:11.587Z,95322.38
2022-09-14T15:37:40.060Z,95328.81
2022-09-14T15:40:07.079Z,95327.56
2022-09-14T15:42:37.716Z,95315.75
2022-09-14T15:48:13.541Z,95335.69
2022-09-14T15:50:40.834Z,95335.72
2022-09-14T15:53:07.495Z,95343.91
2022-09-14T15:55:34.598Z,95347.22
2022-09-14T15:58:02.927Z,95355.03
2022-09-14T16:00:31.153Z,95344.50
2022-09-14T16:03:06.887Z,95341.06
2022-09-14T16:05:36.211Z,95365.31
2022-09-14T16:08:02.863Z,95350.91
2022-09-14T16:10:32.810Z,95342.81
2022-09-14T16:19:05.878Z,95363.59
2022-09-14T16:21:33.088Z,95364.38
2022-09-14T16:23:59.608Z,95354.97
2022-09-14T16:26:27.493Z,95362.25
2022-09-14T16:28:54.220Z,95360.09
2022-09-14T16:31:21.218Z,95366.19
2022-09-14T16:33:47.904Z,95365.78
2022-09-14T16:36:16.628Z,95367.50
2022-09-14T16:41:27.064Z,95367.38
2022-09-14T16:43:54.892Z,95374.72
2022-09-14T16:46:21.977Z,95366.47
2022-09-14T16:48:48.987Z,95363.91
2022-09-14T16:51:20.308Z,95370.88
2022-09-14T16:59:43.142Z,95379.94
2022-09-14T17:02:14.137Z,95388.94
2022-09-14T17:04:40.734Z,95380.94
2022-09-14T17:07:17.280Z,95378.53
2022-09-14T17:12:33.490Z,95392.00
2022-09-14T17:18:13.555Z,95403.75
2022-09-14T17:20:41.577Z,95409.59
2022-09-14T17:23:10.272Z,95405.16
2022-09-14T17:25:37.590Z,95414.13
2022-09-14T17:28:10.435Z,95422.41
2022-09-14T17:30:37.214Z,95432.34
2022-09-14T17:33:04.051Z,95424.47
2022-09-14T17:35:31.480Z,95430.88
2022-09-14T17:50:28.769Z,95444.84
2022-09-14T17:52:58.622Z,95450.94
2022-09-14T17:55:25.877Z,95443.41
2022-09-14T18:01:02.412Z,95443.41
2022-09-14T18:03:31.637Z,95441.38
2022-09-14T18:05:59.343Z,95446.03
2022-09-14T18:08:25.872Z,95461.81
2022-09-14T18:10:52.332Z,95462.22
2022-09-14T18:13:18.881Z,95458.59
2022-09-14T18:15:46.530Z,95470.28
2022-09-14T18:18:13.704Z,95474.09
2022-09-14T18:20:40.734Z,95482.19
2022-09-14T18:25:50.631Z,95482.63
2022-09-14T18:28:17.430Z,95480.44
2022-09-14T18:30:44.202Z,95481.69
2022-09-14T18:33:10.996Z,95476.69
2022-09-14T18:35:38.389Z,95474.53
2022-09-14T18:38:05.006Z,95462.84
2022-09-14T18:40:32.746Z,95466.50
2022-09-14T18:43:01.575Z,95477.13
2022-09-14T18:45:28.099Z,95477.59
2022-09-14T18:47:54.737Z,95478.25
2022-09-14T18:50:23.420Z,95491.28
2022-09-14T18:52:50.282Z,95504.25
2022-09-14T18:55:17.478Z,95524.16
2022-09-14T18:57:44.008Z,95605.22
2022-09-14T19:00:18.343Z,95628.75
2022-09-14T19:02:45.230Z,95609.78
2022-09-14T19:05:14.765Z,95597.44
2022-09-14T19:07:41.353Z,95605.69
2022-09-14T19:10:11.448Z,95603.81
2022-09-14T19:12:38.736Z,95594.66
2022-09-14T19:15:05.568Z,95576.09
2022-09-14T19:17:35.530Z,95564.88
2022-09-14T19:20:04.388Z,95545.94
2022-09-14T19:22:31.047Z,95540.88
2022-09-14T19:25:08.060Z,95550.81
2022-09-14T19:31:02.072Z,95559.69
2022-09-14T19:33:28.846Z,95573.25
2022-09-14T19:35:57.943Z,95582.41
2022-09-14T19:38:33.404Z,95577.66
2022-09-14T19:41:01.162Z,95588.72
2022-09-14T19:43:30.521Z,95591.13
2022-09-14T19:46:00.497Z,95585.97
2022-09-14T19:48:27.903Z,95578.25
2022-09-14T19:50:56.840Z,95595.66
2022-09-14T19:53:26.986Z,95599.97
2022-09-14T19:58:53.367Z,95588.59
2022-09-14T20:01:20.903Z,95576.63
2022-09-14T20:04:02.676Z,95596.16
2022-09-14T20:06:35.546Z,95598.56
2022-09-14T20:09:11.513Z,95604.44
2022-09-14T20:20:36.889Z,95625.19
2022-09-14T20:23:04.363Z,95607.78
2022-09-14T20:31:53.092Z,95613.84
2022-09-14T20:41:03.798Z,95635.25
2022-09-14T20:43:31.510Z,95631.22
2022-09-14T20:46:02.377Z,95628.50
2022-09-14T20:48:30.847Z,95643.06
2022-09-14T20:50:57.880Z,95647.34
2022-09-14T20:59:47.823Z,95665.69
2022-09-14T21:11:27.440Z,95745.78
2022-09-14T21:13:58.197Z,95763.44
2022-09-14T21:16:30.478Z,95755.84
2022-09-14T21:19:09.589Z,95743.59
2022-09-14T21:21:50.055Z,95741.66
2022-09-14T21:27:13.039Z,95750.59
2022-09-14T21:29:50.547Z,95742.84
2022-09-14T21:32:24.556Z,95741.91
2022-09-14T21:34:51.029Z,95731.38
2022-09-14T21:37:21.616Z,95730.19
2022-09-14T21:39:50.372Z,95715.47
2022-09-14T21:42:17.364Z,95727.88
2022-09-14T21:44:44.285Z,95724.53
2022-09-14T21:47:13.804Z,95726.31
2022-09-14T21:49:40.502Z,95738.00
2022-09-14T21:52:07.181Z,95741.59
2022-09-14T21:54:33.866Z,95748.94
2022-09-14T21:57:00.716Z,95750.50
2022-09-14T21:59:27.447Z,95757.00
2022-09-14T22:01:54.456Z,95767.16
2022-09-14T22:04:21.890Z,95772.03
2022-09-14T22:06:49.430Z,95784.41
2022-09-14T22:09:17.668Z,95790.34
2022-09-14T22:11:44.274Z,95799.84
2022-09-14T22:14:10.979Z,95806.19
2022-09-14T22:16:38.323Z,95802.06
2022-09-14T22:19:05.037Z,95802.81
2022-09-14T22:21:31.934Z,95810.16
2022-09-14T22:23:58.648Z,95814.84
2022-09-14T22:26:28.948Z,95816.16
2022-09-14T22:28:56.317Z,95822.41
2022-09-14T22:31:23.758Z,95815.13
2022-09-14T22:33:52.653Z,95823.84
2022-09-14T22:36:19.473Z,95821.16
2022-09-14T22:41:52.586Z,95835.56
2022-09-14T22:44:19.465Z,95836.72
2022-09-14T22:46:46.250Z,95840.50
2022-09-14T22:49:20.241Z,95846.25
2022-09-14T22:51:48.631Z,95853.09
2022-09-14T22:54:17.543Z,95849.25
2022-09-14T22:56:44.599Z,95861.13
2022-09-14T22:59:12.111Z,95862.69
2022-09-14T23:01:38.937Z,95859.22
2022-09-14T23:04:08.702Z,95855.19
2022-09-14T23:09:26.189Z,95864.44
2022-09-14T23:11:53.021Z,95862.97
2022-09-14T23:14:21.279Z,95860.56
2022-09-14T23:16:48.113Z,95854.44
2022-09-14T23:19:14.703Z,95858.41
2022-09-14T23:21:41.725Z,95853.06
2022-09-14T23:24:08.386Z,95851.34
2022-09-14T23:26:37.134Z,95855.47
2022-09-14T23:29:04.541Z,95849.16
2022-09-14T23:31:32.075Z,95853.31
2022-09-14T23:34:03.922Z,95839.31
2022-09-14T23:36:30.542Z,95835.81
2022-09-14T23:38:57.393Z,95830.69
2022-09-14T23:41:24.187Z,95819.19
2022-09-14T23:43:51.612Z,95809.03
2022-09-14T23:46:20.014Z,95820.00
2022-09-14T23:48:47.423Z,95807.72
2022-09-14T23:51:14.814Z,95807.72
2022-09-14T23:56:25.863Z,95796.00
2022-09-14T23:58:53.044Z,95787.81
